sensor_id;sensor_type;location;lat;lon;timestamp;P1;durP1;ratioP1;P2;durP2;ratioP2
53833;SDS011;39735;51.432;5.482;2023-04-03T00:00:59;11.23;;;5.10;;
53833;SDS011;39735;51.432;5.482;2023-04-03T00:03:24;8.55;;;5.47;;
53833;SDS011;39735;51.432;5.482;2023-04-03T00:05:49;12.73;;;5.75;;
53833;SDS011;39735;51.432;5.482;2023-04-03T00:08:16;6.85;;;5.75;;
53833;SDS011;39735;51.432;5.482;2023-04-03T00:10:41;15.32;;;5.45;;
53833;SDS011;39735;51.432;5.482;2023-04-03T00:13:06;16.85;;;5.57;;
53833;SDS011;39735;51.432;5.482;2023-04-03T00:15:32;12.77;;;6.00;;
53833;SDS011;39735;51.432;5.482;2023-04-03T00:17:58;9.93;;;5.80;;
53833;SDS011;39735;51.432;5.482;2023-04-03T00:20:24;12.95;;;7.10;;
53833;SDS011;39735;51.432;5.482;2023-04-03T00:22:49;10.18;;;7.18;;
53833;SDS011;39735;51.432;5.482;2023-04-03T00:25:15;5.78;;;4.88;;
53833;SDS011;39735;51.432;5.482;2023-04-03T00:27:40;10.68;;;5.72;;
53833;SDS011;39735;51.432;5.482;2023-04-03T00:30:07;6.93;;;4.88;;
53833;SDS011;39735;51.432;5.482;2023-04-03T00:32:34;13.43;;;5.93;;
53833;SDS011;39735;51.432;5.482;2023-04-03T00:35:00;8.70;;;5.78;;
53833;SDS011;39735;51.432;5.482;2023-04-03T00:37:25;20.58;;;5.22;;
53833;SDS011;39735;51.432;5.482;2023-04-03T00:39:50;10.45;;;5.15;;
53833;SDS011;39735;51.432;5.482;2023-04-03T00:42:16;19.05;;;6.07;;
53833;SDS011;39735;51.432;5.482;2023-04-03T00:47:08;7.68;;;5.32;;
53833;SDS011;39735;51.432;5.482;2023-04-03T00:49:34;15.27;;;5.70;;
53833;SDS011;39735;51.432;5.482;2023-04-03T00:52:01;10.32;;;4.88;;
53833;SDS011;39735;51.432;5.482;2023-04-03T00:54:26;9.75;;;5.30;;
53833;SDS011;39735;51.432;5.482;2023-04-03T00:56:52;11.65;;;4.97;;
53833;SDS011;39735;51.432;5.482;2023-04-03T00:59:20;7.75;;;4.40;;
53833;SDS011;39735;51.432;5.482;2023-04-03T01:01:50;14.73;;;4.88;;
53833;SDS011;39735;51.432;5.482;2023-04-03T01:04:30;16.23;;;5.28;;
53833;SDS011;39735;51.432;5.482;2023-04-03T01:06:57;8.95;;;4.90;;
53833;SDS011;39735;51.432;5.482;2023-04-03T01:09:25;6.57;;;4.75;;
53833;SDS011;39735;51.432;5.482;2023-04-03T01:11:51;5.85;;;4.25;;
53833;SDS011;39735;51.432;5.482;2023-04-03T01:14:16;10.20;;;4.10;;
53833;SDS011;39735;51.432;5.482;2023-04-03T01:16:42;11.05;;;6.45;;
53833;SDS011;39735;51.432;5.482;2023-04-03T01:19:07;9.15;;;4.50;;
53833;SDS011;39735;51.432;5.482;2023-04-03T01:24:36;4.63;;;4.32;;
53833;SDS011;39735;51.432;5.482;2023-04-03T01:27:04;4.72;;;4.13;;
53833;SDS011;39735;51.432;5.482;2023-04-03T01:29:30;12.77;;;4.47;;
53833;SDS011;39735;51.432;5.482;2023-04-03T01:31:56;17.90;;;4.93;;
53833;SDS011;39735;51.432;5.482;2023-04-03T01:34:23;4.97;;;4.45;;
53833;SDS011;39735;51.432;5.482;2023-04-03T01:36:49;7.72;;;4.97;;
53833;SDS011;39735;51.432;5.482;2023-04-03T01:39:15;12.20;;;4.88;;
53833;SDS011;39735;51.432;5.482;2023-04-03T01:41:41;11.77;;;6.63;;
53833;SDS011;39735;51.432;5.482;2023-04-03T01:44:07;10.27;;;4.82;;
53833;SDS011;39735;51.432;5.482;2023-04-03T01:46:32;7.75;;;5.68;;
53833;SDS011;39735;51.432;5.482;2023-04-03T01:48:57;9.05;;;5.55;;
53833;SDS011;39735;51.432;5.482;2023-04-03T01:51:23;6.65;;;4.30;;
53833;SDS011;39735;51.432;5.482;2023-04-03T01:53:48;7.85;;;5.65;;
53833;SDS011;39735;51.432;5.482;2023-04-03T01:56:14;9.63;;;5.47;;
53833;SDS011;39735;51.432;5.482;2023-04-03T01:58:39;10.75;;;5.43;;
53833;SDS011;39735;51.432;5.482;2023-04-03T02:01:05;12.50;;;5.28;;
53833;SDS011;39735;51.432;5.482;2023-04-03T02:03:31;9.73;;;5.95;;
53833;SDS011;39735;51.432;5.482;2023-04-03T02:05:56;15.30;;;4.75;;
53833;SDS011;39735;51.432;5.482;2023-04-03T02:08:22;6.68;;;5.72;;
53833;SDS011;39735;51.432;5.482;2023-04-03T02:10:48;23.10;;;5.45;;
53833;SDS011;39735;51.432;5.482;2023-04-03T02:13:14;25.80;;;5.18;;
53833;SDS011;39735;51.432;5.482;2023-04-03T02:15:40;15.45;;;6.25;;
53833;SDS011;39735;51.432;5.482;2023-04-03T02:18:05;35.00;;;5.78;;
53833;SDS011;39735;51.432;5.482;2023-04-03T02:20:31;10.18;;;5.07;;
53833;SDS011;39735;51.432;5.482;2023-04-03T02:22:58;5.63;;;5.13;;
53833;SDS011;39735;51.432;5.482;2023-04-03T02:25:24;9.75;;;6.82;;
53833;SDS011;39735;51.432;5.482;2023-04-03T02:27:49;7.80;;;5.28;;
53833;SDS011;39735;51.432;5.482;2023-04-03T02:30:15;7.97;;;4.45;;
53833;SDS011;39735;51.432;5.482;2023-04-03T02:32:41;10.32;;;5.68;;
53833;SDS011;39735;51.432;5.482;2023-04-03T02:35:07;5.00;;;4.57;;
53833;SDS011;39735;51.432;5.482;2023-04-03T02:37:33;6.60;;;4.57;;
53833;SDS011;39735;51.432;5.482;2023-04-03T02:39:58;8.57;;;5.25;;
53833;SDS011;39735;51.432;5.482;2023-04-03T02:42:24;19.38;;;6.00;;
53833;SDS011;39735;51.432;5.482;2023-04-03T02:44:49;6.63;;;4.88;;
53833;SDS011;39735;51.432;5.482;2023-04-03T02:47:15;9.32;;;5.20;;
53833;SDS011;39735;51.432;5.482;2023-04-03T02:49:40;8.68;;;5.00;;
53833;SDS011;39735;51.432;5.482;2023-04-03T02:52:06;9.70;;;4.10;;
53833;SDS011;39735;51.432;5.482;2023-04-03T02:54:31;16.05;;;6.20;;
53833;SDS011;39735;51.432;5.482;2023-04-03T02:56:57;8.73;;;4.78;;
53833;SDS011;39735;51.432;5.482;2023-04-03T02:59:22;12.43;;;3.88;;
53833;SDS011;39735;51.432;5.482;2023-04-03T03:01:48;6.72;;;5.65;;
53833;SDS011;39735;51.432;5.482;2023-04-03T03:04:13;11.65;;;4.57;;
53833;SDS011;39735;51.432;5.482;2023-04-03T03:06:39;10.68;;;7.00;;
53833;SDS011;39735;51.432;5.482;2023-04-03T03:09:05;13.63;;;5.07;;
53833;SDS011;39735;51.432;5.482;2023-04-03T03:11:30;10.50;;;4.35;;
53833;SDS011;39735;51.432;5.482;2023-04-03T03:13:57;6.93;;;4.50;;
53833;SDS011;39735;51.432;5.482;2023-04-03T03:16:22;11.38;;;4.50;;
53833;SDS011;39735;51.432;5.482;2023-04-03T03:18:48;8.52;;;4.90;;
53833;SDS011;39735;51.432;5.482;2023-04-03T03:21:13;4.97;;;4.55;;
53833;SDS011;39735;51.432;5.482;2023-04-03T03:23:39;8.85;;;4.32;;
53833;SDS011;39735;51.432;5.482;2023-04-03T03:26:06;7.07;;;4.18;;
53833;SDS011;39735;51.432;5.482;2023-04-03T03:28:32;15.80;;;4.35;;
53833;SDS011;39735;51.432;5.482;2023-04-03T03:30:58;15.57;;;4.45;;
53833;SDS011;39735;51.432;5.482;2023-04-03T03:33:25;12.07;;;4.38;;
53833;SDS011;39735;51.432;5.482;2023-04-03T03:35:51;11.45;;;5.03;;
53833;SDS011;39735;51.432;5.482;2023-04-03T03:38:17;9.45;;;4.35;;
53833;SDS011;39735;51.432;5.482;2023-04-03T03:40:43;8.10;;;3.72;;
53833;SDS011;39735;51.432;5.482;2023-04-03T03:43:08;13.73;;;5.00;;
53833;SDS011;39735;51.432;5.482;2023-04-03T03:45:34;10.40;;;5.00;;
53833;SDS011;39735;51.432;5.482;2023-04-03T03:47:59;3.83;;;3.38;;
53833;SDS011;39735;51.432;5.482;2023-04-03T03:50:25;5.45;;;3.97;;
53833;SDS011;39735;51.432;5.482;2023-04-03T03:52:50;7.88;;;3.30;;
53833;SDS011;39735;51.432;5.482;2023-04-03T03:55:15;7.97;;;4.38;;
53833;SDS011;39735;51.432;5.482;2023-04-03T03:57:41;16.13;;;4.95;;
53833;SDS011;39735;51.432;5.482;2023-04-03T04:00:07;4.30;;;3.88;;
53833;SDS011;39735;51.432;5.482;2023-04-03T04:02:33;4.63;;;3.42;;
53833;SDS011;39735;51.432;5.482;2023-04-03T04:04:59;30.83;;;3.78;;
53833;SDS011;39735;51.432;5.482;2023-04-03T04:07:24;13.80;;;3.85;;
53833;SDS011;39735;51.432;5.482;2023-04-03T04:09:53;8.07;;;3.95;;
53833;SDS011;39735;51.432;5.482;2023-04-03T04:12:18;5.85;;;3.08;;
53833;SDS011;39735;51.432;5.482;2023-04-03T04:14:44;15.77;;;4.57;;
53833;SDS011;39735;51.432;5.482;2023-04-03T04:17:11;6.30;;;3.83;;
53833;SDS011;39735;51.432;5.482;2023-04-03T04:19:37;11.10;;;4.00;;
53833;SDS011;39735;51.432;5.482;2023-04-03T04:22:03;6.07;;;3.55;;
53833;SDS011;39735;51.432;5.482;2023-04-03T04:24:28;9.98;;;4.55;;
53833;SDS011;39735;51.432;5.482;2023-04-03T04:26:54;10.35;;;3.92;;
53833;SDS011;39735;51.432;5.482;2023-04-03T04:29:20;10.20;;;4.35;;
53833;SDS011;39735;51.432;5.482;2023-04-03T04:31:45;12.15;;;3.60;;
53833;SDS011;39735;51.432;5.482;2023-04-03T04:34:10;5.75;;;3.40;;
53833;SDS011;39735;51.432;5.482;2023-04-03T04:36:37;5.57;;;2.97;;
53833;SDS011;39735;51.432;5.482;2023-04-03T04:39:03;10.30;;;2.63;;
53833;SDS011;39735;51.432;5.482;2023-04-03T04:41:28;7.25;;;3.65;;
53833;SDS011;39735;51.432;5.482;2023-04-03T04:43:54;8.70;;;3.40;;
53833;SDS011;39735;51.432;5.482;2023-04-03T04:46:20;9.52;;;3.85;;
53833;SDS011;39735;51.432;5.482;2023-04-03T04:48:45;9.63;;;3.72;;
53833;SDS011;39735;51.432;5.482;2023-04-03T04:51:10;8.15;;;3.55;;
53833;SDS011;39735;51.432;5.482;2023-04-03T04:53:36;6.03;;;4.13;;
53833;SDS011;39735;51.432;5.482;2023-04-03T04:56:02;6.47;;;3.00;;
53833;SDS011;39735;51.432;5.482;2023-04-03T04:58:28;5.43;;;2.90;;
53833;SDS011;39735;51.432;5.482;2023-04-03T05:01:14;11.50;;;4.45;;
53833;SDS011;39735;51.432;5.482;2023-04-03T05:03:39;3.58;;;2.70;;
53833;SDS011;39735;51.432;5.482;2023-04-03T05:06:04;9.75;;;4.55;;
53833;SDS011;39735;51.432;5.482;2023-04-03T05:08:30;10.27;;;3.45;;
53833;SDS011;39735;51.432;5.482;2023-04-03T05:10:56;10.70;;;3.08;;
53833;SDS011;39735;51.432;5.482;2023-04-03T05:13:21;7.88;;;3.03;;
53833;SDS011;39735;51.432;5.482;2023-04-03T05:15:46;7.80;;;2.72;;
53833;SDS011;39735;51.432;5.482;2023-04-03T05:18:12;7.47;;;3.47;;
53833;SDS011;39735;51.432;5.482;2023-04-03T05:20:37;8.73;;;2.92;;
53833;SDS011;39735;51.432;5.482;2023-04-03T05:23:03;10.45;;;4.35;;
53833;SDS011;39735;51.432;5.482;2023-04-03T05:25:28;3.97;;;2.67;;
53833;SDS011;39735;51.432;5.482;2023-04-03T05:27:54;12.70;;;3.88;;
53833;SDS011;39735;51.432;5.482;2023-04-03T05:30:20;10.88;;;2.83;;
53833;SDS011;39735;51.432;5.482;2023-04-03T05:32:45;12.32;;;2.85;;
53833;SDS011;39735;51.432;5.482;2023-04-03T05:35:11;10.20;;;3.00;;
53833;SDS011;39735;51.432;5.482;2023-04-03T05:37:36;4.40;;;1.88;;
53833;SDS011;39735;51.432;5.482;2023-04-03T05:40:03;9.90;;;2.25;;
53833;SDS011;39735;51.432;5.482;2023-04-03T05:42:29;6.75;;;2.97;;
53833;SDS011;39735;51.432;5.482;2023-04-03T05:44:54;15.85;;;3.03;;
53833;SDS011;39735;51.432;5.482;2023-04-03T05:47:20;5.60;;;3.38;;
53833;SDS011;39735;51.432;5.482;2023-04-03T05:49:45;8.07;;;2.90;;
53833;SDS011;39735;51.432;5.482;2023-04-03T05:54:51;6.53;;;2.70;;
53833;SDS011;39735;51.432;5.482;2023-04-03T05:57:17;5.47;;;2.78;;
53833;SDS011;39735;51.432;5.482;2023-04-03T05:59:43;13.15;;;2.72;;
53833;SDS011;39735;51.432;5.482;2023-04-03T06:02:14;3.78;;;2.13;;
53833;SDS011;39735;51.432;5.482;2023-04-03T06:04:42;7.07;;;2.35;;
53833;SDS011;39735;51.432;5.482;2023-04-03T06:07:09;4.43;;;2.10;;
53833;SDS011;39735;51.432;5.482;2023-04-03T06:09:37;9.35;;;2.97;;
53833;SDS011;39735;51.432;5.482;2023-04-03T06:12:02;2.42;;;2.25;;
53833;SDS011;39735;51.432;5.482;2023-04-03T06:14:27;17.38;;;2.83;;
53833;SDS011;39735;51.432;5.482;2023-04-03T06:16:53;9.88;;;2.88;;
53833;SDS011;39735;51.432;5.482;2023-04-03T06:19:19;9.80;;;3.70;;
53833;SDS011;39735;51.432;5.482;2023-04-03T06:21:45;4.68;;;3.20;;
53833;SDS011;39735;51.432;5.482;2023-04-03T06:24:12;20.38;;;5.18;;
53833;SDS011;39735;51.432;5.482;2023-04-03T06:26:39;10.75;;;6.18;;
53833;SDS011;39735;51.432;5.482;2023-04-03T06:29:04;7.32;;;2.15;;
53833;SDS011;39735;51.432;5.482;2023-04-03T06:31:30;7.95;;;3.30;;
53833;SDS011;39735;51.432;5.482;2023-04-03T06:33:55;12.10;;;2.78;;
53833;SDS011;39735;51.432;5.482;2023-04-03T06:36:21;9.55;;;2.67;;
53833;SDS011;39735;51.432;5.482;2023-04-03T06:38:47;9.40;;;2.50;;
53833;SDS011;39735;51.432;5.482;2023-04-03T06:41:13;5.68;;;2.90;;
53833;SDS011;39735;51.432;5.482;2023-04-03T06:43:39;6.15;;;2.88;;
53833;SDS011;39735;51.432;5.482;2023-04-03T06:46:05;3.47;;;2.38;;
53833;SDS011;39735;51.432;5.482;2023-04-03T06:48:30;4.80;;;3.63;;
53833;SDS011;39735;51.432;5.482;2023-04-03T06:50:56;9.25;;;3.25;;
53833;SDS011;39735;51.432;5.482;2023-04-03T06:53:21;19.73;;;4.07;;
53833;SDS011;39735;51.432;5.482;2023-04-03T06:55:47;5.68;;;2.53;;
53833;SDS011;39735;51.432;5.482;2023-04-03T06:58:13;14.95;;;4.78;;
53833;SDS011;39735;51.432;5.482;2023-04-03T07:00:40;11.32;;;3.50;;
53833;SDS011;39735;51.432;5.482;2023-04-03T07:03:05;7.45;;;2.58;;
53833;SDS011;39735;51.432;5.482;2023-04-03T07:05:31;6.68;;;3.60;;
53833;SDS011;39735;51.432;5.482;2023-04-03T07:07:56;6.30;;;2.28;;
53833;SDS011;39735;51.432;5.482;2023-04-03T07:10:22;12.50;;;3.10;;
53833;SDS011;39735;51.432;5.482;2023-04-03T07:12:47;12.18;;;3.50;;
53833;SDS011;39735;51.432;5.482;2023-04-03T07:15:12;9.38;;;2.17;;
53833;SDS011;39735;51.432;5.482;2023-04-03T07:17:39;11.18;;;2.60;;
53833;SDS011;39735;51.432;5.482;2023-04-03T07:20:05;22.60;;;5.20;;
53833;SDS011;39735;51.432;5.482;2023-04-03T07:22:31;16.00;;;4.28;;
53833;SDS011;39735;51.432;5.482;2023-04-03T07:24:57;14.23;;;1.80;;
53833;SDS011;39735;51.432;5.482;2023-04-03T07:27:23;5.72;;;2.22;;
53833;SDS011;39735;51.432;5.482;2023-04-03T07:29:50;6.65;;;3.15;;
53833;SDS011;39735;51.432;5.482;2023-04-03T07:32:15;16.45;;;3.47;;
53833;SDS011;39735;51.432;5.482;2023-04-03T07:34:41;13.57;;;5.22;;
53833;SDS011;39735;51.432;5.482;2023-04-03T07:37:06;13.32;;;3.53;;
53833;SDS011;39735;51.432;5.482;2023-04-03T07:39:34;10.18;;;2.67;;
53833;SDS011;39735;51.432;5.482;2023-04-03T07:41:59;10.80;;;2.05;;
53833;SDS011;39735;51.432;5.482;2023-04-03T07:44:25;9.88;;;2.22;;
53833;SDS011;39735;51.432;5.482;2023-04-03T07:46:51;16.92;;;3.35;;
53833;SDS011;39735;51.432;5.482;2023-04-03T07:49:16;10.55;;;2.75;;
53833;SDS011;39735;51.432;5.482;2023-04-03T07:51:43;4.28;;;1.77;;
53833;SDS011;39735;51.432;5.482;2023-04-03T07:54:09;16.58;;;2.85;;
53833;SDS011;39735;51.432;5.482;2023-04-03T07:56:34;4.75;;;1.88;;
53833;SDS011;39735;51.432;5.482;2023-04-03T07:59:00;17.08;;;2.25;;
53833;SDS011;39735;51.432;5.482;2023-04-03T08:01:25;7.95;;;2.22;;
53833;SDS011;39735;51.432;5.482;2023-04-03T08:03:50;11.85;;;2.63;;
53833;SDS011;39735;51.432;5.482;2023-04-03T08:06:16;7.43;;;3.22;;
53833;SDS011;39735;51.432;5.482;2023-04-03T08:08:42;8.25;;;1.95;;
53833;SDS011;39735;51.432;5.482;2023-04-03T08:11:07;7.88;;;3.95;;
53833;SDS011;39735;51.432;5.482;2023-04-03T08:13:33;4.25;;;1.63;;
53833;SDS011;39735;51.432;5.482;2023-04-03T08:16:07;4.80;;;1.60;;
53833;SDS011;39735;51.432;5.482;2023-04-03T08:18:36;7.07;;;3.20;;
53833;SDS011;39735;51.432;5.482;2023-04-03T08:21:05;6.03;;;2.38;;
53833;SDS011;39735;51.432;5.482;2023-04-03T08:23:31;5.32;;;2.65;;
53833;SDS011;39735;51.432;5.482;2023-04-03T08:25:56;14.63;;;2.08;;
53833;SDS011;39735;51.432;5.482;2023-04-03T08:28:22;12.00;;;3.53;;
53833;SDS011;39735;51.432;5.482;2023-04-03T08:30:47;4.43;;;1.42;;
53833;SDS011;39735;51.432;5.482;2023-04-03T08:33:13;4.03;;;1.73;;
53833;SDS011;39735;51.432;5.482;2023-04-03T08:35:39;20.08;;;2.53;;
53833;SDS011;39735;51.432;5.482;2023-04-03T08:38:05;3.45;;;1.75;;
53833;SDS011;39735;51.432;5.482;2023-04-03T08:40:31;3.33;;;1.77;;
53833;SDS011;39735;51.432;5.482;2023-04-03T08:48:30;11.25;;;4.10;;
53833;SDS011;39735;51.432;5.482;2023-04-03T08:50:58;6.55;;;1.95;;
53833;SDS011;39735;51.432;5.482;2023-04-03T08:53:26;9.30;;;4.70;;
53833;SDS011;39735;51.432;5.482;2023-04-03T08:55:57;5.95;;;2.50;;
53833;SDS011;39735;51.432;5.482;2023-04-03T08:58:29;15.55;;;2.28;;
53833;SDS011;39735;51.432;5.482;2023-04-03T09:01:01;10.73;;;2.97;;
53833;SDS011;39735;51.432;5.482;2023-04-03T09:03:34;16.48;;;2.78;;
53833;SDS011;39735;51.432;5.482;2023-04-03T09:06:05;4.03;;;1.10;;
53833;SDS011;39735;51.432;5.482;2023-04-03T09:08:33;4.63;;;1.70;;
53833;SDS011;39735;51.432;5.482;2023-04-03T09:13:43;1.80;;;1.65;;
53833;SDS011;39735;51.432;5.482;2023-04-03T09:16:25;2.83;;;1.23;;
53833;SDS011;39735;51.432;5.482;2023-04-03T09:18:55;1.95;;;0.50;;
53833;SDS011;39735;51.432;5.482;2023-04-03T09:21:32;5.80;;;1.02;;
53833;SDS011;39735;51.432;5.482;2023-04-03T09:24:03;12.85;;;1.13;;
53833;SDS011;39735;51.432;5.482;2023-04-03T09:29:07;3.85;;;0.82;;
53833;SDS011;39735;51.432;5.482;2023-04-03T09:31:40;3.80;;;1.08;;
53833;SDS011;39735;51.432;5.482;2023-04-03T09:34:10;3.40;;;1.13;;
53833;SDS011;39735;51.432;5.482;2023-04-03T09:36:49;3.50;;;1.35;;
53833;SDS011;39735;51.432;5.482;2023-04-03T09:39:20;3.80;;;0.98;;
53833;SDS011;39735;51.432;5.482;2023-04-03T09:42:03;3.60;;;2.05;;
53833;SDS011;39735;51.432;5.482;2023-04-03T09:44:41;2.47;;;0.75;;
53833;SDS011;39735;51.432;5.482;2023-04-03T09:47:39;1.10;;;0.22;;
53833;SDS011;39735;51.432;5.482;2023-04-03T09:50:17;2.67;;;0.90;;
53833;SDS011;39735;51.432;5.482;2023-04-03T09:55:15;4.80;;;0.55;;
53833;SDS011;39735;51.432;5.482;2023-04-03T09:57:43;1.70;;;0.93;;
53833;SDS011;39735;51.432;5.482;2023-04-03T10:00:27;3.05;;;1.17;;
53833;SDS011;39735;51.432;5.482;2023-04-03T10:02:56;23.17;;;5.55;;
53833;SDS011;39735;51.432;5.482;2023-04-03T10:05:27;0.50;;;0.45;;
53833;SDS011;39735;51.432;5.482;2023-04-03T10:10:36;3.00;;;0.85;;
53833;SDS011;39735;51.432;5.482;2023-04-03T10:13:06;1.17;;;1.10;;
53833;SDS011;39735;51.432;5.482;2023-04-03T10:15:55;1.35;;;0.60;;
53833;SDS011;39735;51.432;5.482;2023-04-03T10:21:13;3.78;;;0.98;;
53833;SDS011;39735;51.432;5.482;2023-04-03T10:23:44;2.05;;;1.00;;
53833;SDS011;39735;51.432;5.482;2023-04-03T10:31:21;0.50;;;0.50;;
53833;SDS011;39735;51.432;5.482;2023-04-03T10:34:06;3.10;;;2.47;;
53833;SDS011;39735;51.432;5.482;2023-04-03T10:39:27;1.20;;;0.95;;
53833;SDS011;39735;51.432;5.482;2023-04-03T10:42:18;3.03;;;0.35;;
53833;SDS011;39735;51.432;5.482;2023-04-03T10:44:57;9.48;;;0.80;;
53833;SDS011;39735;51.432;5.482;2023-04-03T10:50:31;0.55;;;0.55;;
53833;SDS011;39735;51.432;5.482;2023-04-03T10:53:24;4.03;;;0.95;;
53833;SDS011;39735;51.432;5.482;2023-04-03T10:58:36;0.95;;;0.60;;
53833;SDS011;39735;51.432;5.482;2023-04-03T11:01:38;4.47;;;0.90;;
53833;SDS011;39735;51.432;5.482;2023-04-03T11:03:58;6.97;;;1.55;;
53833;SDS011;39735;51.432;5.482;2023-04-03T11:06:25;1.60;;;0.73;;
53833;SDS011;39735;51.432;5.482;2023-04-03T11:11:46;2.63;;;0.55;;
53833;SDS011;39735;51.432;5.482;2023-04-03T11:16:42;1.00;;;0.63;;
53833;SDS011;39735;51.432;5.482;2023-04-03T11:19:18;10.52;;;1.45;;
53833;SDS011;39735;51.432;5.482;2023-04-03T11:21:54;2.28;;;0.50;;
53833;SDS011;39735;51.432;5.482;2023-04-03T11:24:24;0.45;;;0.40;;
53833;SDS011;39735;51.432;5.482;2023-04-03T11:26:51;4.45;;;0.70;;
53833;SDS011;39735;51.432;5.482;2023-04-03T11:29:19;1.80;;;1.02;;
53833;SDS011;39735;51.432;5.482;2023-04-03T11:36:59;8.13;;;1.48;;
53833;SDS011;39735;51.432;5.482;2023-04-03T11:39:29;3.65;;;0.60;;
53833;SDS011;39735;51.432;5.482;2023-04-03T11:42:13;1.65;;;0.85;;
53833;SDS011;39735;51.432;5.482;2023-04-03T11:44:42;1.77;;;0.60;;
53833;SDS011;39735;51.432;5.482;2023-04-03T11:47:11;5.72;;;0.75;;
53833;SDS011;39735;51.432;5.482;2023-04-03T11:50:30;0.55;;;0.55;;
53833;SDS011;39735;51.432;5.482;2023-04-03T12:16:19;11.20;;;1.30;;
53833;SDS011;39735;51.432;5.482;2023-04-03T12:21:14;1.75;;;0.88;;
53833;SDS011;39735;51.432;5.482;2023-04-03T12:26:30;8.77;;;1.95;;
53833;SDS011;39735;51.432;5.482;2023-04-03T12:29:01;6.80;;;1.27;;
53833;SDS011;39735;51.432;5.482;2023-04-03T12:31:37;2.33;;;0.75;;
53833;SDS011;39735;51.432;5.482;2023-04-03T12:39:51;4.75;;;1.35;;
53833;SDS011;39735;51.432;5.482;2023-04-03T12:49:52;2.97;;;0.82;;
53833;SDS011;39735;51.432;5.482;2023-04-03T12:52:29;8.57;;;1.20;;
53833;SDS011;39735;51.432;5.482;2023-04-03T12:57:29;1.48;;;0.55;;
53833;SDS011;39735;51.432;5.482;2023-04-03T12:59:55;10.18;;;1.08;;
53833;SDS011;39735;51.432;5.482;2023-04-03T13:02:25;2.47;;;1.33;;
53833;SDS011;39735;51.432;5.482;2023-04-03T13:04:53;2.70;;;1.02;;
53833;SDS011;39735;51.432;5.482;2023-04-03T13:07:32;2.03;;;1.10;;
53833;SDS011;39735;51.432;5.482;2023-04-03T13:10:13;1.27;;;0.90;;
53833;SDS011;39735;51.432;5.482;2023-04-03T13:12:48;8.05;;;1.30;;
53833;SDS011;39735;51.432;5.482;2023-04-03T13:17:42;5.72;;;1.75;;
53833;SDS011;39735;51.432;5.482;2023-04-03T13:20:09;6.65;;;1.30;;
53833;SDS011;39735;51.432;5.482;2023-04-03T13:22:42;13.00;;;3.13;;
53833;SDS011;39735;51.432;5.482;2023-04-03T13:25:13;3.92;;;1.00;;
53833;SDS011;39735;51.432;5.482;2023-04-03T13:27:41;0.75;;;0.60;;
53833;SDS011;39735;51.432;5.482;2023-04-03T13:30:18;4.68;;;1.40;;
53833;SDS011;39735;51.432;5.482;2023-04-03T13:32:47;10.73;;;1.92;;
53833;SDS011;39735;51.432;5.482;2023-04-03T13:35:26;7.50;;;2.33;;
53833;SDS011;39735;51.432;5.482;2023-04-03T13:38:04;0.95;;;0.80;;
53833;SDS011;39735;51.432;5.482;2023-04-03T13:40:55;2.40;;;2.17;;
53833;SDS011;39735;51.432;5.482;2023-04-03T13:43:26;10.75;;;1.92;;
53833;SDS011;39735;51.432;5.482;2023-04-03T13:48:52;5.20;;;1.27;;
53833;SDS011;39735;51.432;5.482;2023-04-03T13:53:56;11.63;;;1.38;;
53833;SDS011;39735;51.432;5.482;2023-04-03T13:56:33;4.18;;;1.25;;
53833;SDS011;39735;51.432;5.482;2023-04-03T14:01:45;7.22;;;1.20;;
53833;SDS011;39735;51.432;5.482;2023-04-03T14:04:26;5.55;;;1.77;;
53833;SDS011;39735;51.432;5.482;2023-04-03T14:06:54;6.53;;;1.13;;
53833;SDS011;39735;51.432;5.482;2023-04-03T14:09:20;8.77;;;1.85;;
53833;SDS011;39735;51.432;5.482;2023-04-03T14:11:47;5.32;;;1.00;;
53833;SDS011;39735;51.432;5.482;2023-04-03T14:14:18;15.15;;;3.17;;
53833;SDS011;39735;51.432;5.482;2023-04-03T14:16:50;13.25;;;2.35;;
53833;SDS011;39735;51.432;5.482;2023-04-03T14:19:19;3.70;;;1.85;;
53833;SDS011;39735;51.432;5.482;2023-04-03T14:21:53;5.03;;;1.17;;
53833;SDS011;39735;51.432;5.482;2023-04-03T14:24:20;8.48;;;0.95;;
53833;SDS011;39735;51.432;5.482;2023-04-03T14:26:47;11.20;;;1.88;;
53833;SDS011;39735;51.432;5.482;2023-04-03T14:29:14;1.95;;;0.80;;
53833;SDS011;39735;51.432;5.482;2023-04-03T14:31:41;14.25;;;1.58;;
53833;SDS011;39735;51.432;5.482;2023-04-03T14:34:09;1.27;;;0.98;;
53833;SDS011;39735;51.432;5.482;2023-04-03T14:36:35;12.70;;;2.67;;
53833;SDS011;39735;51.432;5.482;2023-04-03T14:39:02;8.05;;;1.73;;
53833;SDS011;39735;51.432;5.482;2023-04-03T14:41:28;2.15;;;1.35;;
53833;SDS011;39735;51.432;5.482;2023-04-03T14:43:54;7.03;;;1.38;;
53833;SDS011;39735;51.432;5.482;2023-04-03T14:46:21;10.23;;;1.63;;
53833;SDS011;39735;51.432;5.482;2023-04-03T14:48:51;5.60;;;1.20;;
53833;SDS011;39735;51.432;5.482;2023-04-03T14:51:16;7.50;;;1.15;;
53833;SDS011;39735;51.432;5.482;2023-04-03T14:53:42;4.03;;;1.30;;
53833;SDS011;39735;51.432;5.482;2023-04-03T14:58:43;4.13;;;1.17;;
53833;SDS011;39735;51.432;5.482;2023-04-03T15:01:11;5.40;;;2.15;;
53833;SDS011;39735;51.432;5.482;2023-04-03T15:03:37;6.32;;;1.35;;
53833;SDS011;39735;51.432;5.482;2023-04-03T15:06:02;6.40;;;1.85;;
53833;SDS011;39735;51.432;5.482;2023-04-03T15:08:28;3.38;;;1.85;;
53833;SDS011;39735;51.432;5.482;2023-04-03T15:10:54;4.95;;;1.83;;
53833;SDS011;39735;51.432;5.482;2023-04-03T15:13:21;2.25;;;1.35;;
53833;SDS011;39735;51.432;5.482;2023-04-03T15:15:47;5.18;;;1.35;;
53833;SDS011;39735;51.432;5.482;2023-04-03T15:18:15;4.93;;;1.83;;
53833;SDS011;39735;51.432;5.482;2023-04-03T15:20:43;3.97;;;1.80;;
53833;SDS011;39735;51.432;5.482;2023-04-03T15:23:09;3.42;;;2.08;;
53833;SDS011;39735;51.432;5.482;2023-04-03T15:25:36;4.85;;;1.58;;
53833;SDS011;39735;51.432;5.482;2023-04-03T15:28:02;10.18;;;1.55;;
53833;SDS011;39735;51.432;5.482;2023-04-03T15:30:27;17.90;;;1.67;;
53833;SDS011;39735;51.432;5.482;2023-04-03T15:32:53;3.92;;;1.33;;
53833;SDS011;39735;51.432;5.482;2023-04-03T15:35:18;3.00;;;1.13;;
53833;SDS011;39735;51.432;5.482;2023-04-03T15:37:44;6.15;;;1.10;;
53833;SDS011;39735;51.432;5.482;2023-04-03T15:40:10;5.45;;;1.27;;
53833;SDS011;39735;51.432;5.482;2023-04-03T15:42:35;7.72;;;1.92;;
53833;SDS011;39735;51.432;5.482;2023-04-03T15:45:01;12.40;;;1.83;;
53833;SDS011;39735;51.432;5.482;2023-04-03T15:47:26;8.15;;;1.75;;
53833;SDS011;39735;51.432;5.482;2023-04-03T15:49:53;1.67;;;1.45;;
53833;SDS011;39735;51.432;5.482;2023-04-03T15:52:19;9.52;;;1.75;;
53833;SDS011;39735;51.432;5.482;2023-04-03T15:54:45;10.82;;;1.85;;
53833;SDS011;39735;51.432;5.482;2023-04-03T15:57:10;6.20;;;1.40;;
53833;SDS011;39735;51.432;5.482;2023-04-03T15:59:36;1.80;;;1.02;;
53833;SDS011;39735;51.432;5.482;2023-04-03T16:02:01;4.47;;;1.02;;
53833;SDS011;39735;51.432;5.482;2023-04-03T16:04:29;5.63;;;2.33;;
53833;SDS011;39735;51.432;5.482;2023-04-03T16:06:55;16.05;;;1.40;;
53833;SDS011;39735;51.432;5.482;2023-04-03T16:09:20;1.23;;;1.15;;
53833;SDS011;39735;51.432;5.482;2023-04-03T16:11:46;8.50;;;1.92;;
53833;SDS011;39735;51.432;5.482;2023-04-03T16:14:11;8.30;;;3.15;;
53833;SDS011;39735;51.432;5.482;2023-04-03T16:16:36;8.60;;;1.90;;
53833;SDS011;39735;51.432;5.482;2023-04-03T16:19:02;6.18;;;1.27;;
53833;SDS011;39735;51.432;5.482;2023-04-03T16:21:28;3.88;;;1.65;;
53833;SDS011;39735;51.432;5.482;2023-04-03T16:23:55;2.78;;;1.48;;
53833;SDS011;39735;51.432;5.482;2023-04-03T16:26:22;6.82;;;1.33;;
53833;SDS011;39735;51.432;5.482;2023-04-03T16:28:47;3.50;;;2.08;;
53833;SDS011;39735;51.432;5.482;2023-04-03T16:31:13;3.13;;;1.35;;
53833;SDS011;39735;51.432;5.482;2023-04-03T16:33:38;2.00;;;1.52;;
53833;SDS011;39735;51.432;5.482;2023-04-03T16:36:04;8.75;;;1.42;;